Time;durP1;ratioP1;P1;durP2;ratioP2;P2;SDS_P1;SDS_P2;PMS_P1;PMS_P2;Temp;Humidity;BMP_temperature;BMP_pressure;BME280_temperature;BME280_humidity;BME280_pressure;Samples;Min_cycle;Max_cycle;Signal;HPM_P1;HPM_P2
2022/06/13 00:02:02;;;;;;;9.87;8.27;;;26.10;55.00;;;;;;4973881;28;20034;-56
2022/06/13 00:04:27;;;;;;;9.13;8.23;;;26.00;54.70;;;;;;4974271;28;20595;-56
2022/06/13 00:06:53;;;;;;;9.50;8.57;;;26.00;54.80;;;;;;4974666;28;20121;-57
2022/06/13 00:09:19;;;;;;;10.13;8.00;;;26.00;55.10;;;;;;4971092;28;20089;-57
2022/06/13 00:11:45;;;;;;;12.13;8.67;;;25.90;55.30;;;;;;4974985;28;20019;-57
2022/06/13 00:14:11;;;;;;;9.10;7.53;;;25.90;55.40;;;;;;4973270;28;20394;-57
2022/06/13 00:16:37;;;;;;;8.80;7.73;;;25.80;55.50;;;;;;4974710;28;20031;-57
2022/06/13 00:19:03;;;;;;;8.40;7.60;;;25.80;55.60;;;;;;4972778;28;20031;-57
2022/06/13 00:21:32;;;;;;;10.83;8.13;;;25.80;55.60;;;;;;4972784;28;20041;-57
2022/06/13 00:24:00;;;;;;;9.30;7.97;;;25.70;55.90;;;;;;4974382;28;20399;-58
2022/06/13 00:26:27;;;;;;;12.52;7.50;;;;;;;;;;4974410;28;20480;-55
2022/06/13 00:28:54;;;;;;;13.88;7.57;;;25.60;56.30;;;;;;4974258;28;20089;-57
2022/06/13 00:31:19;;;;;;;;;;;25.60;56.50;;;;;;4974616;28;20027;-59
2022/06/13 00:33:46;;;;;;;9.82;7.22;;;25.50;56.30;;;;;;4974233;28;19917;-57
2022/06/13 00:36:11;;;;;;;8.13;7.35;;;25.40;56.60;;;;;;4974255;28;20088;-55
2022/06/13 00:38:37;;;;;;;7.73;6.93;;;25.40;56.80;;;;;;4973873;28;20571;-55
2022/06/13 00:41:14;;;;;;;11.52;7.47;;;25.40;57.00;;;;;;4973934;28;20116;-54
2022/06/13 00:43:42;;;;;;;10.40;8.00;;;25.40;57.60;;;;;;4974252;28;20026;-56
2022/06/13 00:46:19;;;;;;;11.38;7.97;;;25.30;57.40;;;;;;4973487;28;20046;-56
2022/06/13 00:48:45;;;;;;;12.20;9.57;;;25.30;57.80;;;;;;4973761;28;20084;-56
2022/06/13 00:51:11;;;;;;;10.40;9.30;;;25.20;57.60;;;;;;4974150;28;20369;-56
2022/06/13 00:53:37;;;;;;;9.77;8.93;;;25.20;57.80;;;;;;4973799;28;20438;-58
2022/06/13 00:56:11;;;;;;;11.57;9.00;;;25.10;58.10;;;;;;4973862;28;20035;-57
2022/06/13 00:58:48;;;;;;;13.77;8.52;;;25.10;58.50;;;;;;4972860;28;20034;-58
2022/06/13 01:01:15;;;;;;;10.48;9.48;;;25.10;58.60;;;;;;4973981;28;20658;-57
2022/06/13 01:03:44;;;;;;;11.65;9.00;;;25.00;58.40;;;;;;4973593;28;20062;-58
2022/06/13 01:06:11;;;;;;;11.85;9.27;;;25.00;58.40;;;;;;4971902;28;20034;-56
2022/06/13 01:08:38;;;;;;;10.25;9.30;;;25.00;58.30;;;;;;4973329;28;20027;-54
2022/06/13 01:11:18;;;;;;;10.77;9.68;;;;;;;;;;4973111;28;20031;-54
2022/06/13 01:13:47;;;;;;;11.82;9.63;;;;;;;;;;4972559;28;20170;-53
2022/06/13 01:16:36;;;;;;;17.30;10.25;;;;;;;;;;4973182;28;20058;-54
2022/06/13 01:19:12;;;;;;;10.77;9.50;;;;;;;;;;4972839;28;20045;-57
2022/06/13 01:21:38;;;;;;;10.73;9.73;;;;;;;;;;4973378;28;20030;-55
2022/06/13 01:24:23;;;;;;;10.80;9.80;;;;;;;;;;4973064;28;20042;-58
2022/06/13 01:26:56;;;;;;;12.82;9.60;;;24.90;58.20;;;;;;4960236;28;20034;-58
2022/06/13 01:29:51;;;;;;;10.30;9.30;;;;;;;;;;4973221;28;20400;-57
2022/06/13 01:32:29;;;;;;;10.88;9.77;;;24.90;57.60;;;;;;4972466;28;20126;-58
2022/06/13 01:35:12;;;;;;;10.55;9.52;;;;;;;;;;4973452;28;20396;-57
2022/06/13 01:37:46;;;;;;;10.90;9.90;;;24.90;57.60;;;;;;4972151;28;20027;-58
2022/06/13 01:40:17;;;;;;;16.30;11.43;;;24.90;57.60;;;;;;4973028;28;20069;-57
2022/06/13 01:42:59;;;;;;;11.18;10.07;;;;;;;;;;4973105;28;20118;-58
2022/06/13 01:45:47;;;;;;;14.45;11.88;;;;;;;;;;4962548;28;20058;-57
2022/06/13 01:48:22;;;;;;;10.85;9.85;;;;;;;;;;4972542;28;20573;-56
2022/06/13 01:50:59;;;;;;;11.70;10.50;;;;;;;;;;4973099;28;20428;-56
2022/06/13 01:53:28;;;;;;;13.35;10.43;;;;;;;;;;4972907;28;20111;-56
2022/06/13 01:56:03;;;;;;;11.48;10.48;;;;;;;;;;4972797;28;20403;-53
2022/06/13 01:58:44;;;;;;;12.05;10.88;;;;;;;;;;4972477;28;20030;-56
2022/06/13 02:01:10;;;;;;;16.17;10.45;;;;;;;;;;4972740;28;20050;-55
2022/06/13 02:03:44;;;;;;;11.70;10.50;;;;;;;;;;4972787;28;20060;-54
2022/06/13 02:06:20;;;;;;;10.13;9.10;;;;;;;;;;4972859;28;20027;-53
2022/06/13 02:08:52;;;;;;;12.13;10.40;;;;;;;;;;4970223;28;20416;-56
2022/06/13 02:11:21;;;;;;;12.13;10.95;;;;;;;;;;4970840;28;20034;-57
2022/06/13 02:13:53;;;;;;;12.48;10.98;;;;;;;;;;4963802;28;20082;-56
2022/06/13 02:16:23;;;;;;;13.73;11.00;;;;;;;;;;4971173;28;20034;-56
2022/06/13 02:18:55;;;;;;;14.70;10.23;;;;;;;;;;4970973;28;20061;-54
2022/06/13 02:21:22;;;;;;;11.55;10.35;;;;;;;;;;4972750;28;20422;-56
2022/06/13 02:23:50;;;;;;;12.63;10.38;;;;;;;;;;4968292;28;20035;-56
2022/06/13 02:26:29;;;;;;;12.00;10.27;;;;;;;;;;4973853;28;20034;-57
2022/06/13 02:29:00;;;;;;;10.95;9.88;;;;;;;;;;4976368;28;20039;-53
2022/06/13 02:31:52;;;;;;;11.55;10.45;;;;;;;;;;4976786;28;20027;-54
2022/06/13 02:34:23;;;;;;;11.90;10.70;;;;;;;;;;4975438;28;20532;-56
2022/06/13 02:36:52;;;;;;;12.38;10.32;;;;;;;;;;4976106;28;20027;-56
2022/06/13 02:39:25;;;;;;;12.90;10.80;;;;;;;;;;4976144;28;20035;-57
2022/06/13 02:41:57;;;;;;;11.35;10.07;;;;;;;;;;4976677;28;20022;-54
2022/06/13 02:44:43;;;;;;;16.30;10.90;;;;;;;;;;4976084;28;20041;-56
2022/06/13 02:47:13;;;;;;;11.45;10.35;;;;;;;;;;4975613;28;20031;-53
2022/06/13 02:49:52;;;;;;;11.93;9.90;;;;;;;;;;4976176;28;20031;-57
2022/06/13 02:52:39;;;;;;;12.68;10.52;;;;;;;;;;4975388;28;20103;-56
2022/06/13 02:55:07;;;;;;;11.68;10.48;;;;;;;;;;4975718;28;20035;-59
2022/06/13 02:57:52;;;;;;;12.43;10.73;;;;;;;;;;4975662;28;20130;-57
2022/06/13 03:00:30;;;;;;;13.82;11.98;;;;;;;;;;4975764;28;20031;-57
2022/06/13 03:03:10;;;;;;;13.68;11.18;;;;;;;;;;4975854;28;20027;-57
2022/06/13 03:05:52;;;;;;;13.90;11.25;;;;;;;;;;4975564;28;20439;-54
2022/06/13 03:08:24;;;;;;;13.55;11.23;;;;;;;;;;4975833;28;20062;-54
2022/06/13 03:11:09;;;;;;;13.70;11.07;;;;;;;;;;4975708;28;20111;-53
2022/06/13 03:13:35;;;;;;;12.45;11.15;;;;;;;;;;4973227;28;20034;-57
2022/06/13 03:16:06;;;;;;;12.33;10.97;;;;;;;;;;4956550;28;20039;-58
2022/06/13 03:18:52;;;;;;;16.42;12.05;;;;;;;;;;4964559;28;20038;-53
2022/06/13 03:21:42;;;;;;;11.73;9.98;;;;;;;;;;4975764;28;20450;-57
2022/06/13 03:24:11;;;;;;;14.93;11.00;;;;;;;;;;4973062;28;20053;-57
2022/06/13 03:26:44;;;;;;;12.60;11.35;;;;;;;;;;4975157;28;20667;-57
2022/06/13 03:29:13;;;;;;;16.13;11.73;;;;;;;;;;4975564;28;20089;-57
2022/06/13 03:31:50;;;;;;;11.57;10.48;;;;;;;;;;4975372;28;20023;-55
2022/06/13 03:34:23;;;;;;;14.25;11.13;;;;;;;;;;4974446;28;20109;-58
2022/06/13 03:36:52;;;;;;;14.00;12.52;;;;;;;;;;4973400;28;20030;-59
2022/06/13 03:39:38;;;;;;;13.85;12.38;;;;;;;;;;4972897;28;20105;-58
2022/06/13 03:42:33;;;;;;;14.60;13.00;;;;;;;;;;4972303;28;20035;-57
2022/06/13 03:45:18;;;;;;;16.35;12.43;;;;;;;;;;4973721;28;20098;-57
2022/06/13 03:47:52;;;;;;;15.30;13.95;;;;;;;;;;4975308;28;20035;-58
2022/06/13 03:50:30;;;;;;;16.83;13.65;;;;;;;;;;4973479;28;20417;-57
2022/06/13 03:53:00;;;;;;;14.55;13.05;;;;;;;;;;4974296;28;20027;-57
2022/06/13 03:55:29;;;;;;;14.50;13.00;;;;;;;;;;4973942;28;20399;-53
2022/06/13 03:57:58;;;;;;;18.73;14.35;;;;;;;;;;4972410;28;20041;-55
2022/06/13 04:00:27;;;;;;;15.85;14.35;;;;;;;;;;4973040;28;20027;-57
2022/06/13 04:02:53;;;;;;;27.30;13.45;;;;;;;;;;4955832;28;20440;-57
2022/06/13 04:05:40;;;;;;;14.23;12.82;;;;;;;;;;4955621;28;20031;-55
2022/06/13 04:08:08;;;;;;;13.82;12.45;;;;;;;;;;4955367;28;20028;-55
2022/06/13 04:10:39;;;;;;;14.30;12.82;;;;;;;;;;4970393;28;20029;-58
2022/06/13 04:13:44;;;;;;;16.55;12.10;;;;;;;;;;4955817;28;20030;-52
2022/06/13 04:16:19;;;;;;;13.23;11.50;;;;;;;;;;4989788;28;20037;-56
2022/06/13 04:18:51;;;;;;;17.38;11.40;;;;;;;;;;4990814;28;20102;-54
2022/06/13 04:21:36;;;;;;;14.38;12.50;;;;;;;;;;4970779;28;20039;-53
2022/06/13 04:24:11;;;;;;;13.23;11.88;;;;;;;;;;4955403;28;20054;-56
2022/06/13 04:26:51;;;;;;;14.73;13.23;;;;;;;;;;4955185;28;20109;-54
2022/06/13 04:29:20;;;;;;;13.27;11.57;;;;;;;;;;4954255;28;20020;-53
2022/06/13 04:31:46;;;;;;;15.70;11.48;;;;;;;;;;4955176;28;20058;-55
2022/06/13 04:34:15;;;;;;;13.10;11.90;;;;;;;;;;4955191;28;20038;-56
2022/06/13 04:36:42;;;;;;;14.57;12.93;;;;;;;;;;4955098;28;20056;-56
2022/06/13 04:39:09;;;;;;;13.15;11.82;;;;;;;;;;4954957;28;20030;-56
2022/06/13 04:41:38;;;;;;;15.52;12.98;;;;;;;;;;4955101;28;20472;-56
2022/06/13 04:44:05;;;;;;;14.10;11.88;;;;;;;;;;4954921;28;20031;-57
2022/06/13 04:46:31;;;;;;;;;;;;;;;;;;4955344;28;20053;-53
2022/06/13 04:49:00;;;;;;;13.20;11.90;;;;;;;;;;4953912;28;20358;-56
2022/06/13 04:51:29;;;;;;;12.68;11.38;;;;;;;;;;4954824;28;20561;-55
2022/06/13 04:54:00;;;;;;;16.67;11.23;;;;;;;;;;4954702;28;20502;-54
2022/06/13 04:56:26;;;;;;;13.90;12.23;;;;;;;;;;4955531;28;20028;-55
2022/06/13 04:58:53;;;;;;;12.95;11.60;;;;;;;;;;4970560;28;20147;-60
2022/06/13 05:01:22;;;;;;;17.65;10.98;;;;;;;;;;4955109;28;20511;-59
2022/06/13 05:03:49;;;;;;;13.90;11.52;;;;;;;;;;4955198;28;20485;-60
2022/06/13 05:06:18;;;;;;;18.85;11.05;;;;;;;;;;4955968;28;20476;-60
2022/06/13 05:08:44;;;;;;;16.70;11.73;;;;;;;;;;4956001;28;20035;-60
2022/06/13 05:11:24;;;;;;;14.17;12.03;;;;;;;;;;4955575;28;20026;-60
2022/06/13 05:13:53;;;;;;;15.90;11.98;;;;;;;;;;4955197;28;20330;-60
2022/06/13 05:16:39;;;;;;;16.77;11.27;;;;;;;;;;4955027;28;20478;-63
2022/06/13 05:19:10;;;;;;;17.13;11.55;;;;;;;;;;4954271;28;20031;-63
2022/06/13 05:21:51;;;;;;;18.95;11.40;;;;;;;;;;4955428;28;20058;-63
2022/06/13 05:24:24;;;;;;;13.82;10.77;;;;;;;;;;4954634;28;20023;-64
2022/06/13 05:26:50;;;;;;;12.10;10.90;;;;;;;;;;4954990;28;20433;-60
2022/06/13 05:29:16;;;;;;;17.20;11.50;;;;;;;;;;4954745;28;20519;-60
2022/06/13 05:31:43;;;;;;;12.65;10.00;;;;;;;;;;4955714;28;20484;-60
2022/06/13 05:34:19;;;;;;;11.35;10.25;;;24.80;58.00;;;;;;4956243;28;20035;-61
2022/06/13 05:36:45;;;;;;;12.70;11.05;;;24.70;60.70;;;;;;4956087;28;20042;-60
2022/06/13 05:39:12;;;;;;;12.63;10.57;;;24.70;60.20;;;;;;4957124;28;20476;-61
2022/06/13 05:41:38;;;;;;;14.27;10.25;;;24.80;60.70;;;;;;4956716;28;20030;-60
2022/06/13 05:44:05;;;;;;;10.77;9.77;;;24.80;60.80;;;;;;4956366;29;20027;-61
2022/06/13 05:46:33;;;;;;;20.92;10.40;;;24.90;60.70;;;;;;4955939;28;20019;-60
2022/06/13 05:49:00;;;;;;;10.50;9.40;;;25.00;60.80;;;;;;4954918;28;20035;-60
2022/06/13 05:51:26;;;;;;;11.93;9.70;;;25.10;60.50;;;;;;4953980;28;20019;-60
2022/06/13 05:53:52;;;;;;;14.67;7.93;;;25.10;60.30;;;;;;4954852;28;20531;-63
2022/06/13 05:56:20;;;;;;;9.68;8.70;;;25.20;59.80;;;;;;4954292;28;20145;-53
2022/06/13 05:58:46;;;;;;;9.82;8.77;;;25.30;59.80;;;;;;4953585;28;20106;-56
2022/06/13 06:01:15;;;;;;;15.52;9.00;;;25.40;60.10;;;;;;4953732;28;20031;-56
2022/06/13 06:03:42;;;;;;;13.52;8.35;;;25.50;60.80;;;;;;4953890;28;20027;-52
2022/06/13 06:06:15;;;;;;;8.80;7.90;;;25.70;59.90;;;;;;4968469;28;20049;-54
2022/06/13 06:08:41;;;;;;;9.15;8.23;;;25.80;59.60;;;;;;4953507;28;20034;-54
2022/06/13 06:11:07;;;;;;;8.10;7.30;;;25.90;59.80;;;;;;4953612;28;20396;-55
2022/06/13 06:13:32;;;;;;;8.43;6.97;;;25.90;58.80;;;;;;4953702;28;20082;-53
2022/06/13 06:16:00;;;;;;;8.37;7.57;;;25.90;58.60;;;;;;4953739;28;20030;-52
2022/06/13 06:18:26;;;;;;;10.18;7.43;;;25.90;58.30;;;;;;4953356;28;20027;-55
2022/06/13 06:20:52;;;;;;;8.65;7.78;;;25.90;57.40;;;;;;4953590;28;20030;-55
2022/06/13 06:23:18;;;;;;;10.63;7.40;;;25.80;56.90;;;;;;4968487;28;20031;-53
2022/06/13 06:25:47;;;;;;;8.93;7.43;;;25.80;57.50;;;;;;4968300;28;20030;-55
2022/06/13 06:28:23;;;;;;;9.30;7.25;;;25.90;57.50;;;;;;5002256;23;20314;-58
2022/06/13 06:30:50;;;;;;;11.63;6.90;;;26.00;57.10;;;;;;4971937;28;20023;-60
2022/06/13 06:33:16;;;;;;;10.77;7.18;;;25.90;56.30;;;;;;4972698;28;20435;-60
2022/06/13 06:35:42;;;;;;;8.00;6.27;;;26.00;56.00;;;;;;4972697;28;20109;-59
2022/06/13 06:38:09;;;;;;;8.83;6.13;;;26.00;56.50;;;;;;4972432;28;20035;-58
2022/06/13 06:40:35;;;;;;;7.57;6.38;;;26.10;56.50;;;;;;4972491;28;20313;-59
2022/06/13 06:43:01;;;;;;;10.93;6.60;;;26.20;56.00;;;;;;4972655;28;20037;-59
2022/06/13 06:45:27;;;;;;;8.30;6.73;;;26.20;55.70;;;;;;4972592;28;20102;-59
2022/06/13 06:47:54;;;;;;;6.93;6.22;;;26.20;56.00;;;;;;4972437;28;20034;-59
2022/06/13 06:50:23;;;;;;;10.40;5.70;;;26.30;56.40;;;;;;4972549;28;20022;-60
2022/06/13 06:52:49;;;;;;;13.55;6.85;;;26.20;56.00;;;;;;4972255;28;20109;-60
2022/06/13 07:00:49;;;;;;;10.82;6.78;;;26.10;56.10;;;;;;4971589;28;20050;-60
2022/06/13 07:03:15;;;;;;;7.80;6.32;;;26.00;55.50;;;;;;4972476;28;20026;-64
2022/06/13 07:05:41;;;;;;;10.18;5.80;;;26.00;55.50;;;;;;4971970;28;20031;-62
2022/06/13 07:08:07;;;;;;;8.00;7.23;;;26.00;55.70;;;;;;4972121;28;20030;-63
2022/06/13 07:10:34;;;;;;;8.35;6.57;;;26.10;55.50;;;;;;4972420;28;20502;-63
2022/06/13 07:12:59;;;;;;;9.02;6.65;;;26.20;54.90;;;;;;4974678;28;20485;-62
2022/06/13 07:15:25;;;;;;;6.97;6.27;;;26.30;54.50;;;;;;4976009;28;20055;-63
2022/06/13 07:17:51;;;;;;;6.63;6.03;;;26.30;54.20;;;;;;4975484;28;20391;-64
2022/06/13 07:20:17;;;;;;;8.53;6.53;;;26.30;54.80;;;;;;4975833;28;20062;-63
2022/06/13 07:22:52;;;;;;;6.20;5.60;;;26.40;54.70;;;;;;4975678;28;20104;-63
2022/06/13 07:25:25;;;;;;;9.50;5.88;;;26.50;54.90;;;;;;4975745;28;20027;-63
2022/06/13 07:27:51;;;;;;;7.13;6.18;;;26.50;54.90;;;;;;4975421;28;20043;-61
2022/06/13 07:30:19;;;;;;;7.80;6.13;;;26.50;54.50;;;;;;4975612;28;20023;-63
2022/06/13 07:32:46;;;;;;;6.63;5.60;;;26.60;54.40;;;;;;4974391;28;20042;-62
2022/06/13 07:35:14;;;;;;;9.50;5.68;;;26.70;54.00;;;;;;4975594;28;20089;-63
2022/06/13 07:40:25;;;;;;;8.30;5.32;;;26.80;54.00;;;;;;4975174;28;20054;-61
2022/06/13 07:42:55;;;;;;;8.75;6.88;;;26.80;54.00;;;;;;4975376;28;20026;-61
2022/06/13 07:45:26;;;;;;;8.07;5.57;;;26.80;53.90;;;;;;4975587;28;20042;-60
2022/06/13 07:47:53;;;;;;;6.20;5.70;;;26.90;54.30;;;;;;4975112;28;20019;-60
2022/06/13 07:50:21;;;;;;;9.82;6.07;;;26.90;53.80;;;;;;4974742;28;20483;-60
2022/06/13 07:52:48;;;;;;;9.45;7.00;;;26.90;53.10;;;;;;4966476;28;20019;-59
2022/06/13 07:55:14;;;;;;;9.80;5.25;;;27.00;53.00;;;;;;4975416;28;20030;-60
2022/06/13 07:57:40;;;;;;;7.17;4.60;;;27.00;52.70;;;;;;4974930;28;20554;-60
2022/06/13 08:00:07;;;;;;;8.32;5.38;;;27.10;53.00;;;;;;4975072;28;20436;-61
2022/06/13 08:02:36;;;;;;;6.30;5.30;;;27.20;53.20;;;;;;4975018;28;20539;-59
2022/06/13 08:05:02;;;;;;;8.65;5.28;;;27.30;52.60;;;;;;4974850;28;20073;-60
2022/06/13 08:07:28;;;;;;;6.28;4.55;;;27.20;52.50;;;;;;4974856;28;20499;-60
2022/06/13 08:09:54;;;;;;;9.47;5.07;;;27.30;52.60;;;;;;4974805;28;20050;-58
2022/06/13 08:12:21;;;;;;;4.40;4.03;;;27.30;51.40;;;;;;4974792;28;20025;-58
2022/06/13 08:14:47;;;;;;;5.45;3.78;;;27.30;51.10;;;;;;4973720;28;20031;-59
2022/06/13 08:17:14;;;;;;;;;;;27.30;51.10;;;;;;4973692;28;20436;-59
2022/06/13 08:19:39;;;;;;;8.50;3.63;;;27.40;51.10;;;;;;4974761;28;19910;-58
2022/06/13 08:22:05;;;;;;;4.20;3.10;;;27.40;51.30;;;;;;4974782;28;20031;-61
2022/06/13 08:24:31;;;;;;;8.33;4.03;;;27.50;51.20;;;;;;4974427;28;20039;-60
2022/06/13 08:26:56;;;;;;;6.63;3.13;;;27.60;50.60;;;;;;4974434;28;20050;-60
2022/06/13 08:29:22;;;;;;;5.03;3.77;;;27.80;49.60;;;;;;4974478;28;20027;-57
2022/06/13 08:31:48;;;;;;;9.20;4.47;;;27.80;49.80;;;;;;4974742;28;20459;-60
2022/06/13 08:34:14;;;;;;;9.97;4.80;;;27.90;50.00;;;;;;4973494;28;20479;-59
2022/06/13 08:36:39;;;;;;;8.53;4.00;;;27.90;49.80;;;;;;4974459;28;20495;-60
2022/06/13 08:39:06;;;;;;;6.73;4.07;;;27.90;50.40;;;;;;4974056;28;20085;-57
2022/06/13 08:41:55;;;;;;;6.93;4.10;;;28.00;50.30;;;;;;4974241;28;20381;-59
2022/06/13 08:44:43;;;;;;;5.63;3.65;;;28.10;49.00;;;;;;4968225;28;20114;-59
2022/06/13 08:47:50;;;;;;;5.72;3.55;;;28.20;48.90;;;;;;4959414;28;20090;-59
2022/06/13 08:50:37;;;;;;;7.55;3.47;;;28.30;49.60;;;;;;4953895;28;20090;-57
2022/06/13 08:53:23;;;;;;;6.70;4.22;;;28.30;48.40;;;;;;4953608;28;20416;-62
2022/06/13 08:55:58;;;;;;;4.82;3.22;;;28.40;48.40;;;;;;4954696;28;20019;-61
2022/06/13 08:58:53;;;;;;;8.18;4.63;;;28.40;47.90;;;;;;4954614;28;20492;-59
2022/06/13 09:01:41;;;;;;;8.65;3.22;;;28.50;48.30;;;;;;4954378;29;20412;-60
2022/06/13 09:04:20;;;;;;;7.32;3.70;;;28.60;47.80;;;;;;4954614;29;20023;-59
2022/06/13 09:06:52;;;;;;;6.63;3.28;;;28.60;48.30;;;;;;4954684;28;20035;-61
2022/06/13 09:09:27;;;;;;;4.78;4.32;;;28.70;47.50;;;;;;4954470;29;20020;-59
2022/06/13 09:11:59;;;;;;;7.38;3.75;;;28.80;47.00;;;;;;4954567;29;20031;-59
2022/06/13 09:14:34;;;;;;;5.68;4.20;;;28.80;46.50;;;;;;4954459;28;20023;-61
2022/06/13 09:17:12;;;;;;;10.68;3.58;;;28.80;46.70;;;;;;4954427;28;20032;-61
2022/06/13 09:19:43;;;;;;;5.45;3.22;;;28.80;47.20;;;;;;4954486;29;20048;-59
2022/06/13 09:22:14;;;;;;;5.75;4.07;;;28.90;47.70;;;;;;4954423;28;20054;-59
2022/06/13 09:24:39;;;;;;;4.70;3.75;;;28.90;46.80;;;;;;4954193;29;20035;-62
2022/06/13 09:27:12;;;;;;;13.30;3.63;;;28.90;47.10;;;;;;4954117;28;20030;-62
2022/06/13 09:29:50;;;;;;;7.95;4.30;;;28.90;46.90;;;;;;4954285;28;20031;-61
2022/06/13 09:32:18;;;;;;;14.43;4.75;;;29.10;47.60;;;;;;4954205;28;20031;-59
2022/06/13 09:34:51;;;;;;;5.78;3.80;;;29.00;47.20;;;;;;4953763;28;20023;-61
2022/06/13 09:37:33;;;;;;;7.85;4.85;;;29.20;47.30;;;;;;4953917;28;20641;-60
2022/06/13 09:39:59;;;;;;;8.55;4.20;;;29.30;46.50;;;;;;4954158;28;20037;-59
2022/06/13 09:43:06;;;;;;;7.13;3.73;;;29.30;46.00;;;;;;4954141;28;20027;-56
2022/06/13 09:45:37;;;;;;;6.93;3.88;;;29.40;46.30;;;;;;4953821;28;20028;-61
2022/06/13 09:48:25;;;;;;;5.22;2.97;;;29.40;45.50;;;;;;4953642;28;20469;-60
2022/06/13 09:51:09;;;;;;;5.45;3.95;;;29.50;46.50;;;;;;4954005;28;20024;-61
2022/06/13 09:53:58;;;;;;;9.13;3.67;;;29.50;46.50;;;;;;4954042;28;20038;-61
2022/06/13 09:56:41;;;;;;;8.07;4.55;;;29.60;46.90;;;;;;4953839;29;20439;-59
2022/06/13 09:59:45;;;;;;;5.88;4.07;;;29.70;46.70;;;;;;4953674;28;20058;-57
2022/06/13 10:02:20;;;;;;;8.20;5.03;;;29.80;45.90;;;;;;4952784;28;20071;-59
2022/06/13 10:05:00;;;;;;;6.78;4.90;;;29.80;46.70;;;;;;4953790;28;20027;-61
2022/06/13 10:07:43;;;;;;;5.55;4.00;;;29.90;46.20;;;;;;4953536;28;20026;-58
2022/06/13 10:10:35;;;;;;;7.07;4.75;;;30.00;47.10;;;;;;4953675;28;20055;-59
2022/06/13 10:13:16;;;;;;;6.45;4.80;;;30.00;46.30;;;;;;4959512;28;20043;-59
2022/06/13 10:15:57;;;;;;;9.10;3.90;;;30.10;46.00;;;;;;4967012;28;20058;-60
2022/06/13 10:18:59;;;;;;;8.77;3.85;;;30.20;46.10;;;;;;4970898;28;20030;-61
2022/06/13 10:21:36;;;;;;;6.72;5.10;;;30.30;47.60;;;;;;4967273;28;20170;-56
2022/06/13 10:24:24;;;;;;;8.10;5.43;;;30.30;46.70;;;;;;4988834;28;20101;-59
2022/06/13 10:27:10;;;;;;;7.80;4.95;;;30.40;45.80;;;;;;4991697;28;20045;-62
2022/06/13 10:30:00;;;;;;;5.20;3.78;;;30.50;45.40;;;;;;4971825;28;20037;-60
2022/06/13 10:32:50;;;;;;;9.52;4.70;;;30.50;45.40;;;;;;4969411;28;20513;-59
2022/06/13 10:35:36;;;;;;;7.55;5.18;;;30.60;45.50;;;;;;4972665;28;20023;-60
2022/06/13 10:38:17;;;;;;;5.63;4.93;;;30.60;45.50;;;;;;4972745;28;20046;-60
2022/06/13 10:40:43;;;;;;;6.45;3.67;;;30.60;45.50;;;;;;4972448;28;20038;-60
2022/06/13 10:43:10;;;;;;;8.43;3.70;;;30.70;45.20;;;;;;4972760;28;20023;-61
2022/06/13 10:45:40;;;;;;;8.52;3.60;;;30.70;45.10;;;;;;4972014;28;20034;-57
2022/06/13 10:48:17;;;;;;;13.27;5.15;;;30.80;44.20;;;;;;4974799;28;20050;-60
2022/06/13 10:51:02;;;;;;;12.40;5.90;;;30.90;43.60;;;;;;4975704;28;20094;-60
2022/06/13 10:53:38;;;;;;;9.07;5.03;;;30.90;44.70;;;;;;4976134;28;20027;-60
2022/06/13 10:56:07;;;;;;;6.65;5.00;;;30.90;45.10;;;;;;4976016;28;20067;-60
2022/06/13 10:58:47;;;;;;;10.77;5.15;;;31.00;44.40;;;;;;4975662;28;20106;-60
2022/06/13 11:01:13;;;;;;;7.65;5.80;;;31.10;43.70;;;;;;4975966;28;21375;-61
2022/06/13 11:03:58;;;;;;;6.53;4.93;;;31.00;44.40;;;;;;4974789;28;20049;-62
2022/06/13 11:06:49;;;;;;;6.05;4.03;;;31.10;44.40;;;;;;4973585;28;20399;-59
2022/06/13 11:09:30;;;;;;;13.38;10.00;;;31.20;44.20;;;;;;4972909;28;20126;-57
2022/06/13 11:12:03;;;;;;;6.60;3.78;;;31.30;44.60;;;;;;4976096;28;20065;-57
2022/06/13 11:14:37;;;;;;;4.78;4.35;;;31.40;45.70;;;;;;4975469;28;20018;-58
2022/06/13 11:22:43;;;;;;;6.07;3.60;;;31.80;44.50;;;;;;4956906;28;20531;-58
2022/06/13 11:25:32;;;;;;;7.38;4.35;;;31.70;44.00;;;;;;4970826;28;20112;-59
2022/06/13 11:28:21;;;;;;;8.23;3.25;;;31.80;44.10;;;;;;4994738;28;20045;-61
2022/06/13 11:31:17;;;;;;;5.60;3.03;;;31.90;44.10;;;;;;4993912;28;20030;-59
2022/06/13 11:33:42;;;;;;;13.07;4.05;;;32.00;44.40;;;;;;4995090;28;20053;-59
2022/06/13 11:36:21;;;;;;;6.47;3.60;;;32.10;43.30;;;;;;4993617;28;20547;-61
2022/06/13 11:39:00;;;;;;;5.32;3.03;;;32.30;42.90;;;;;;4975570;28;20034;-59
2022/06/13 11:41:40;;;;;;;13.73;2.78;;;32.40;43.10;;;;;;4975608;28;20046;-61
2022/06/13 11:44:08;;;;;;;6.07;3.65;;;32.40;42.90;;;;;;4974213;28;20035;-60
2022/06/13 11:46:36;;;;;;;6.50;2.63;;;32.50;42.30;;;;;;4974975;28;20086;-61
2022/06/13 11:49:18;;;;;;;7.07;3.10;;;32.60;41.90;;;;;;4975160;28;20534;-59
2022/06/13 11:51:56;;;;;;;6.55;3.03;;;32.60;41.90;;;;;;4975235;28;20023;-58
2022/06/13 11:54:33;;;;;;;6.90;2.97;;;32.70;41.60;;;;;;4968667;28;20491;-62
2022/06/13 11:57:14;;;;;;;3.97;2.20;;;32.70;39.90;;;;;;4974085;28;20027;-59
2022/06/13 11:59:51;;;;;;;4.55;3.38;;;32.90;41.20;;;;;;4974391;28;20023;-62
2022/06/13 12:02:34;;;;;;;;;;;33.00;42.10;;;;;;4956303;28;20038;-63
2022/06/13 12:05:00;;;;;;;3.60;2.50;;;33.00;42.30;;;;;;4955730;28;20009;-61
2022/06/13 12:07:29;;;;;;;7.50;3.33;;;33.10;42.20;;;;;;4955395;28;20145;-61
2022/06/13 12:10:00;;;;;;;4.70;3.13;;;33.10;39.70;;;;;;4958356;28;20038;-63
2022/06/13 12:12:43;;;;;;;6.72;2.25;;;33.10;39.50;;;;;;4974927;28;20023;-60
2022/06/13 12:15:10;;;;;;;5.95;3.15;;;33.10;41.30;;;;;;4974725;28;20038;-59
2022/06/13 12:17:42;;;;;;;9.32;2.80;;;33.30;40.90;;;;;;4974404;28;20035;-61
2022/06/13 12:20:20;;;;;;;3.63;2.50;;;33.30;41.40;;;;;;4974025;28;20138;-59
2022/06/13 12:22:46;;;;;;;3.92;2.85;;;33.40;39.90;;;;;;4974767;28;20027;-59
2022/06/13 12:25:23;;;;;;;5.35;2.58;;;33.40;39.70;;;;;;4974666;28;20041;-63
2022/06/13 12:28:03;;;;;;;4.05;2.60;;;33.50;39.70;;;;;;4982711;23;20034;-62
2022/06/13 12:30:37;;;;;;;9.10;3.25;;;33.60;40.20;;;;;;5010332;28;20030;-63
2022/06/13 12:33:12;;;;;;;7.50;3.15;;;33.70;38.40;;;;;;5010834;28;20032;-62
2022/06/13 12:35:55;;;;;;;4.95;3.22;;;33.70;40.20;;;;;;4995137;28;20034;-62
2022/06/13 12:38:49;;;;;;;3.58;2.45;;;33.70;40.10;;;;;;4993740;28;20496;-63
2022/06/13 12:41:43;;;;;;;8.57;3.95;;;33.90;40.40;;;;;;4993977;28;20096;-63
2022/06/13 12:44:29;;;;;;;2.58;2.03;;;33.90;39.50;;;;;;4995138;28;20034;-63
2022/06/13 12:47:02;;;;;;;7.90;2.92;;;33.90;40.40;;;;;;5005737;28;20061;-63
2022/06/13 12:50:01;;;;;;;4.25;2.47;;;34.00;39.10;;;;;;5002610;28;20021;-62
2022/06/13 12:52:44;;;;;;;8.80;2.30;;;34.00;39.10;;;;;;5003874;28;20057;-62
2022/06/13 12:55:25;;;;;;;7.82;2.30;;;34.00;37.80;;;;;;5004102;28;20022;-62
2022/06/13 12:57:54;;;;;;;6.63;2.00;;;33.80;39.20;;;;;;4993261;28;20076;-64
2022/06/13 13:00:30;;;;;;;4.45;2.40;;;34.00;39.40;;;;;;4993813;28;20037;-62
2022/06/13 13:03:11;;;;;;;6.90;2.57;;;34.10;39.70;;;;;;4992259;28;20069;-63
2022/06/13 13:05:52;;;;;;;7.00;3.35;;;34.20;39.40;;;;;;5000328;28;20538;-63
2022/06/13 13:08:26;;;;;;;6.63;2.58;;;34.40;39.10;;;;;;5001328;28;20141;-62
2022/06/13 13:11:13;;;;;;;2.55;2.00;;;34.50;38.60;;;;;;5001065;28;20105;-63
2022/06/13 13:13:39;;;;;;;6.80;1.73;;;34.70;38.20;;;;;;5007902;28;20024;-64
2022/06/13 13:16:11;;;;;;;5.47;2.83;;;34.80;38.40;;;;;;4993241;28;20323;-63
2022/06/13 13:18:51;;;;;;;5.55;2.38;;;35.10;38.10;;;;;;4992899;28;20033;-63
2022/06/13 13:21:28;;;;;;;17.60;2.80;;;35.40;37.20;;;;;;5012342;28;20096;-63
2022/06/13 13:23:56;;;;;;;4.18;2.60;;;36.20;37.40;;;;;;5006044;28;20030;-64
2022/06/13 13:26:34;;;;;;;3.80;2.38;;;37.30;34.70;;;;;;4993015;28;20065;-64
2022/06/13 13:29:15;;;;;;;5.22;2.40;;;38.70;33.70;;;;;;4999163;28;20106;-62
2022/06/13 13:31:49;;;;;;;6.65;2.80;;;40.70;31.90;;;;;;5012614;28;20505;-61
2022/06/13 13:34:59;;;;;;;4.95;2.60;;;42.10;31.20;;;;;;5001824;28;20116;-62
2022/06/13 13:37:59;;;;;;;6.80;2.38;;;43.20;29.50;;;;;;5005970;28;20490;-62
2022/06/13 13:40:45;;;;;;;9.57;2.55;;;44.00;27.70;;;;;;5032094;28;20025;-62
2022/06/13 13:43:55;;;;;;;7.03;2.53;;;44.90;27.90;;;;;;4992814;28;20057;-63
2022/06/13 13:46:31;;;;;;;5.68;2.60;;;46.10;27.60;;;;;;4997585;28;20034;-62
2022/06/13 13:49:01;;;;;;;5.95;3.13;;;47.10;26.30;;;;;;5029769;28;20029;-62
2022/06/13 13:51:44;;;;;;;3.70;2.40;;;47.70;25.40;;;;;;5026016;28;20386;-63
2022/06/13 13:54:27;;;;;;;10.15;3.75;;;48.50;25.50;;;;;;5011686;28;20021;-63
2022/06/13 13:56:54;;;;;;;6.88;3.10;;;49.10;25.00;;;;;;5016145;28;20013;-62
2022/06/13 13:59:26;;;;;;;8.27;5.45;;;49.70;24.20;;;;;;5031622;28;20025;-62
2022/06/13 14:02:11;;;;;;;6.20;4.28;;;49.80;23.50;;;;;;5016738;28;20427;-57
2022/06/13 14:04:48;;;;;;;7.40;2.73;;;49.50;23.90;;;;;;5006672;28;20492;-62